GOBD Airport Information

Runway Information
Runway 01 Length 11483 ft width 197 ft
Elevation 272 ft Threshold 394 ft Heading 359
Runway 19 Length 11483 ft Width 197 ft
Elevation 251 ft Threshold 394 ft Heading 179
Airport Frequencies
Airport Navaids
Airport Weather Information & NOTAM
ADDS - METARS form results

(1707 UTC 19 August 2022)
Data provider http://aviationweather.gov/metar/data/
 
METAR text: GOBD 191700Z 20008KT 9999 FEW020 FEW030CB 27/25 Q1010 NOSIG
Conditions at: GOBD (DAKAR/DIAGNE , SN) observed 1700 UTC 19 August 2022
Temperature: 27.0°C (81°F)
Dewpoint: 25.0°C (77°F) [RH = 89%]
Pressure (altimeter): 29.82 inches Hg (1010.0 mb)
Winds: from the SSW (200 degrees) at 9 MPH (8 knots; 4.1 m/s)
Visibility: 6 or more miles (10+ km)
Ceiling: at least 12,000 feet AGL
Clouds: few clouds at 2000 feet AGL
few clouds at 3000 feet AGL
Weather: no significant weather observed at this time

METAR text: GOBD 191630Z 21008KT 9999 TS FEW020 FEW030CB 27/25 Q1010 NOSIG
Conditions at: GOBD (DAKAR/DIAGNE , SN) observed 1630 UTC 19 August 2022
Temperature: 27.0°C (81°F)
Dewpoint: 25.0°C (77°F) [RH = 89%]
Pressure (altimeter): 29.82 inches Hg (1010.0 mb)
Winds: from the SSW (210 degrees) at 9 MPH (8 knots; 4.1 m/s)
Visibility: 6 or more miles (10+ km)
Ceiling: at least 12,000 feet AGL
Clouds: few clouds at 2000 feet AGL
few clouds at 3000 feet AGL
Weather: TS  (thunderstorm)

Forecast for: GOBD (DAKAR/DIAGNE , SN)
Text: TAF GOBD 191130Z 1912/2018 VRB05KT 9999 BKN012
Forecast period: 1200 UTC 19 August 2022 to 1800 UTC 20 August 2022
Forecast type: FROM: standard forecast or significant change
Winds: variable direction winds at 6 MPH (5 knots; 2.6 m/s)
Visibility: 6 or more miles (10+ km)
Ceiling: 1200 feet AGL
Clouds: broken clouds at 1200 feet AGL
Weather: no significant weather forecast for this period
Text: TEMPO 4000 RA
Forecast period: 1200 UTC 19 August 2022 to 1800 UTC 20 August 2022
Forecast type: FROM: standard forecast or significant change
Visibility: missing
Ceiling: unknown
Clouds: missing
Weather: no significant weather forecast for this period